sensor_id;sensor_type;location;lat;lon;timestamp;P1;P2;P0
74419;PMS5003;62855;50.718;-2.460;2023-07-13T00:02:06;10.89;8.80;
74419;PMS5003;62855;50.718;-2.460;2023-07-13T00:05:08;10.89;7.82;
74419;PMS5003;62855;50.718;-2.460;2023-07-13T00:08:06;9.98;7.82;
74419;PMS5003;62855;50.718;-2.460;2023-07-13T00:11:06;9.08;6.84;
74419;PMS5003;62855;50.718;-2.460;2023-07-13T00:14:06;8.17;6.84;
74419;PMS5003;62855;50.718;-2.460;2023-07-13T00:17:06;8.17;5.87;
74419;PMS5003;62855;50.718;-2.460;2023-07-13T00:20:06;6.35;4.89;
74419;PMS5003;62855;50.718;-2.460;2023-07-13T00:23:06;4.54;3.91;
74419;PMS5003;62855;50.718;-2.460;2023-07-13T00:26:06;5.45;5.87;
74419;PMS5003;62855;50.718;-2.460;2023-07-13T00:29:06;4.54;4.89;
74419;PMS5003;62855;50.718;-2.460;2023-07-13T00:32:06;5.45;5.87;
74419;PMS5003;62855;50.718;-2.460;2023-07-13T00:35:06;5.45;4.89;
74419;PMS5003;62855;50.718;-2.460;2023-07-13T00:38:06;6.35;5.87;
74419;PMS5003;62855;50.718;-2.460;2023-07-13T00:41:05;4.54;4.89;
74419;PMS5003;62855;50.718;-2.460;2023-07-13T00:44:08;5.45;5.87;
74419;PMS5003;62855;50.718;-2.460;2023-07-13T00:47:06;5.45;5.87;
74419;PMS5003;62855;50.718;-2.460;2023-07-13T00:50:06;6.35;6.84;
74419;PMS5003;62855;50.718;-2.460;2023-07-13T00:53:06;6.35;6.84;
74419;PMS5003;62855;50.718;-2.460;2023-07-13T00:56:06;5.45;5.87;
74419;PMS5003;62855;50.718;-2.460;2023-07-13T00:59:06;5.45;5.87;
74419;PMS5003;62855;50.718;-2.460;2023-07-13T01:02:06;6.35;6.84;
74419;PMS5003;62855;50.718;-2.460;2023-07-13T01:05:08;6.35;6.84;
74419;PMS5003;62855;50.718;-2.460;2023-07-13T01:08:06;6.35;6.84;
74419;PMS5003;62855;50.718;-2.460;2023-07-13T01:11:06;6.35;6.84;
74419;PMS5003;62855;50.718;-2.460;2023-07-13T01:14:07;5.45;5.87;
74419;PMS5003;62855;50.718;-2.460;2023-07-13T01:17:08;6.35;6.84;
74419;PMS5003;62855;50.718;-2.460;2023-07-13T01:20:06;6.35;6.84;
74419;PMS5003;62855;50.718;-2.460;2023-07-13T01:23:07;7.26;7.82;
74419;PMS5003;62855;50.718;-2.460;2023-07-13T01:26:06;7.26;7.82;
74419;PMS5003;62855;50.718;-2.460;2023-07-13T01:29:06;7.26;7.82;
74419;PMS5003;62855;50.718;-2.460;2023-07-13T01:32:06;7.26;7.82;
74419;PMS5003;62855;50.718;-2.460;2023-07-13T01:35:06;8.17;8.80;
74419;PMS5003;62855;50.718;-2.460;2023-07-13T01:38:06;9.08;8.80;
74419;PMS5003;62855;50.718;-2.460;2023-07-13T01:41:05;9.08;8.80;
74419;PMS5003;62855;50.718;-2.460;2023-07-13T01:44:06;8.17;8.80;
74419;PMS5003;62855;50.718;-2.460;2023-07-13T01:47:06;8.17;8.80;
74419;PMS5003;62855;50.718;-2.460;2023-07-13T01:50:06;8.17;7.82;
74419;PMS5003;62855;50.718;-2.460;2023-07-13T01:53:06;8.17;6.84;
74419;PMS5003;62855;50.718;-2.460;2023-07-13T01:56:05;8.17;7.82;
74419;PMS5003;62855;50.718;-2.460;2023-07-13T01:59:06;8.17;7.82;
74419;PMS5003;62855;50.718;-2.460;2023-07-13T02:02:06;8.17;7.82;
74419;PMS5003;62855;50.718;-2.460;2023-07-13T02:05:06;8.17;7.82;
74419;PMS5003;62855;50.718;-2.460;2023-07-13T02:08:06;7.26;7.82;
74419;PMS5003;62855;50.718;-2.460;2023-07-13T02:11:06;7.26;6.84;
74419;PMS5003;62855;50.718;-2.460;2023-07-13T02:14:06;8.17;7.82;
74419;PMS5003;62855;50.718;-2.460;2023-07-13T02:17:06;7.26;7.82;
74419;PMS5003;62855;50.718;-2.460;2023-07-13T02:20:06;7.26;7.82;
74419;PMS5003;62855;50.718;-2.460;2023-07-13T02:24:06;6.35;6.84;
74419;PMS5003;62855;50.718;-2.460;2023-07-13T02:27:06;5.45;5.87;
74419;PMS5003;62855;50.718;-2.460;2023-07-13T02:30:06;5.45;5.87;
74419;PMS5003;62855;50.718;-2.460;2023-07-13T02:33:06;5.45;5.87;
74419;PMS5003;62855;50.718;-2.460;2023-07-13T02:36:06;5.45;5.87;
74419;PMS5003;62855;50.718;-2.460;2023-07-13T02:39:05;5.45;5.87;
74419;PMS5003;62855;50.718;-2.460;2023-07-13T02:42:06;5.45;5.87;
74419;PMS5003;62855;50.718;-2.460;2023-07-13T02:45:07;5.45;5.87;
74419;PMS5003;62855;50.718;-2.460;2023-07-13T02:48:06;5.45;5.87;
74419;PMS5003;62855;50.718;-2.460;2023-07-13T02:51:06;5.45;5.87;
74419;PMS5003;62855;50.718;-2.460;2023-07-13T02:54:06;6.35;6.84;
74419;PMS5003;62855;50.718;-2.460;2023-07-13T02:57:06;6.35;6.84;
74419;PMS5003;62855;50.718;-2.460;2023-07-13T03:00:06;7.26;7.82;
74419;PMS5003;62855;50.718;-2.460;2023-07-13T03:03:06;6.35;6.84;
74419;PMS5003;62855;50.718;-2.460;2023-07-13T03:06:06;6.35;6.84;
74419;PMS5003;62855;50.718;-2.460;2023-07-13T03:09:06;7.26;7.82;
74419;PMS5003;62855;50.718;-2.460;2023-07-13T03:12:06;6.35;6.84;
74419;PMS5003;62855;50.718;-2.460;2023-07-13T03:16:06;6.35;6.84;
74419;PMS5003;62855;50.718;-2.460;2023-07-13T03:19:06;6.35;6.84;
74419;PMS5003;62855;50.718;-2.460;2023-07-13T03:22:06;6.35;6.84;
74419;PMS5003;62855;50.718;-2.460;2023-07-13T03:25:06;6.35;6.84;
74419;PMS5003;62855;50.718;-2.460;2023-07-13T03:28:06;6.35;6.84;
74419;PMS5003;62855;50.718;-2.460;2023-07-13T03:31:07;6.35;6.84;
74419;PMS5003;62855;50.718;-2.460;2023-07-13T03:34:05;6.35;6.84;
74419;PMS5003;62855;50.718;-2.460;2023-07-13T03:37:06;5.45;5.87;
74419;PMS5003;62855;50.718;-2.460;2023-07-13T03:40:07;6.35;5.87;
74419;PMS5003;62855;50.718;-2.460;2023-07-13T03:43:06;5.45;5.87;
74419;PMS5003;62855;50.718;-2.460;2023-07-13T03:46:06;6.35;5.87;
74419;PMS5003;62855;50.718;-2.460;2023-07-13T03:49:06;5.45;5.87;
74419;PMS5003;62855;50.718;-2.460;2023-07-13T03:52:06;5.45;5.87;
74419;PMS5003;62855;50.718;-2.460;2023-07-13T03:55:16;5.45;5.87;
74419;PMS5003;62855;50.718;-2.460;2023-07-13T04:01:06;5.45;5.87;
74419;PMS5003;62855;50.718;-2.460;2023-07-13T04:04:06;6.35;6.84;
74419;PMS5003;62855;50.718;-2.460;2023-07-13T04:07:07;5.45;5.87;
74419;PMS5003;62855;50.718;-2.460;2023-07-13T04:10:06;5.45;5.87;
74419;PMS5003;62855;50.718;-2.460;2023-07-13T04:13:06;5.45;5.87;
74419;PMS5003;62855;50.718;-2.460;2023-07-13T04:16:06;5.45;5.87;
74419;PMS5003;62855;50.718;-2.460;2023-07-13T04:19:06;6.35;6.84;
74419;PMS5003;62855;50.718;-2.460;2023-07-13T04:22:06;6.35;6.84;
74419;PMS5003;62855;50.718;-2.460;2023-07-13T04:25:06;6.35;6.84;
74419;PMS5003;62855;50.718;-2.460;2023-07-13T04:28:06;7.26;7.82;
74419;PMS5003;62855;50.718;-2.460;2023-07-13T04:31:06;6.35;6.84;
74419;PMS5003;62855;50.718;-2.460;2023-07-13T04:34:05;5.45;5.87;
74419;PMS5003;62855;50.718;-2.460;2023-07-13T04:37:06;7.26;6.84;
74419;PMS5003;62855;50.718;-2.460;2023-07-13T04:40:06;7.26;7.82;
74419;PMS5003;62855;50.718;-2.460;2023-07-13T04:43:06;7.26;7.82;
74419;PMS5003;62855;50.718;-2.460;2023-07-13T04:46:17;7.26;6.84;
74419;PMS5003;62855;50.718;-2.460;2023-07-13T04:49:06;7.26;6.84;
74419;PMS5003;62855;50.718;-2.460;2023-07-13T04:52:06;7.26;6.84;
74419;PMS5003;62855;50.718;-2.460;2023-07-13T04:55:07;7.26;6.84;
74419;PMS5003;62855;50.718;-2.460;2023-07-13T04:58:06;7.26;6.84;
74419;PMS5003;62855;50.718;-2.460;2023-07-13T05:01:06;7.26;6.84;
74419;PMS5003;62855;50.718;-2.460;2023-07-13T05:04:06;7.26;6.84;
74419;PMS5003;62855;50.718;-2.460;2023-07-13T05:07:05;7.26;6.84;
74419;PMS5003;62855;50.718;-2.460;2023-07-13T05:10:07;7.26;6.84;
74419;PMS5003;62855;50.718;-2.460;2023-07-13T05:13:06;7.26;6.84;
74419;PMS5003;62855;50.718;-2.460;2023-07-13T05:16:06;7.26;6.84;
74419;PMS5003;62855;50.718;-2.460;2023-07-13T05:19:06;7.26;6.84;
74419;PMS5003;62855;50.718;-2.460;2023-07-13T05:22:06;6.35;6.84;
74419;PMS5003;62855;50.718;-2.460;2023-07-13T05:25:07;6.35;6.84;
74419;PMS5003;62855;50.718;-2.460;2023-07-13T05:28:05;7.26;6.84;
74419;PMS5003;62855;50.718;-2.460;2023-07-13T05:31:06;7.26;6.84;
74419;PMS5003;62855;50.718;-2.460;2023-07-13T05:34:05;7.26;6.84;
74419;PMS5003;62855;50.718;-2.460;2023-07-13T05:37:07;6.35;5.87;
74419;PMS5003;62855;50.718;-2.460;2023-07-13T05:40:06;5.45;5.87;
74419;PMS5003;62855;50.718;-2.460;2023-07-13T05:43:06;6.35;5.87;
74419;PMS5003;62855;50.718;-2.460;2023-07-13T05:46:05;7.26;5.87;
74419;PMS5003;62855;50.718;-2.460;2023-07-13T05:49:06;6.35;5.87;
74419;PMS5003;62855;50.718;-2.460;2023-07-13T05:52:06;6.35;4.89;
74419;PMS5003;62855;50.718;-2.460;2023-07-13T05:55:07;6.35;4.89;
74419;PMS5003;62855;50.718;-2.460;2023-07-13T05:58:06;5.45;4.89;
74419;PMS5003;62855;50.718;-2.460;2023-07-13T06:01:07;5.45;4.89;
74419;PMS5003;62855;50.718;-2.460;2023-07-13T06:04:06;4.54;4.89;
74419;PMS5003;62855;50.718;-2.460;2023-07-13T06:07:06;5.45;5.87;
74419;PMS5003;62855;50.718;-2.460;2023-07-13T06:10:06;6.35;5.87;
74419;PMS5003;62855;50.718;-2.460;2023-07-13T06:13:06;4.54;4.89;
74419;PMS5003;62855;50.718;-2.460;2023-07-13T06:16:06;5.45;5.87;
74419;PMS5003;62855;50.718;-2.460;2023-07-13T06:19:06;5.45;5.87;
74419;PMS5003;62855;50.718;-2.460;2023-07-13T06:22:06;4.54;4.89;
74419;PMS5003;62855;50.718;-2.460;2023-07-13T06:25:06;5.45;5.87;
74419;PMS5003;62855;50.718;-2.460;2023-07-13T06:30:06;4.54;4.89;
74419;PMS5003;62855;50.718;-2.460;2023-07-13T06:33:06;5.45;5.87;
74419;PMS5003;62855;50.718;-2.460;2023-07-13T06:36:35;5.45;5.87;
74419;PMS5003;62855;50.718;-2.460;2023-07-13T06:39:06;4.54;4.89;
74419;PMS5003;62855;50.718;-2.460;2023-07-13T06:42:06;5.45;5.87;
74419;PMS5003;62855;50.718;-2.460;2023-07-13T06:45:07;5.45;5.87;
74419;PMS5003;62855;50.718;-2.460;2023-07-13T06:48:06;4.54;4.89;
74419;PMS5003;62855;50.718;-2.460;2023-07-13T06:51:06;6.35;6.84;
74419;PMS5003;62855;50.718;-2.460;2023-07-13T06:54:06;6.35;6.84;
74419;PMS5003;62855;50.718;-2.460;2023-07-13T06:57:06;8.17;7.82;
74419;PMS5003;62855;50.718;-2.460;2023-07-13T07:00:06;8.17;7.82;
74419;PMS5003;62855;50.718;-2.460;2023-07-13T07:03:06;7.26;6.84;
74419;PMS5003;62855;50.718;-2.460;2023-07-13T07:06:11;8.17;7.82;
74419;PMS5003;62855;50.718;-2.460;2023-07-13T07:09:06;7.26;7.82;
74419;PMS5003;62855;50.718;-2.460;2023-07-13T07:12:07;8.17;8.80;
74419;PMS5003;62855;50.718;-2.460;2023-07-13T07:15:06;8.17;7.82;
74419;PMS5003;62855;50.718;-2.460;2023-07-13T07:18:06;9.08;8.80;
74419;PMS5003;62855;50.718;-2.460;2023-07-13T07:21:06;8.17;6.84;
74419;PMS5003;62855;50.718;-2.460;2023-07-13T07:24:06;7.26;6.84;
74419;PMS5003;62855;50.718;-2.460;2023-07-13T07:27:06;7.26;6.84;
74419;PMS5003;62855;50.718;-2.460;2023-07-13T07:30:06;8.17;7.82;
74419;PMS5003;62855;50.718;-2.460;2023-07-13T07:33:06;6.35;6.84;
74419;PMS5003;62855;50.718;-2.460;2023-07-13T07:36:05;7.26;6.84;
74419;PMS5003;62855;50.718;-2.460;2023-07-13T07:39:06;7.26;6.84;
74419;PMS5003;62855;50.718;-2.460;2023-07-13T07:42:06;7.26;5.87;
74419;PMS5003;62855;50.718;-2.460;2023-07-13T07:45:06;6.35;5.87;
74419;PMS5003;62855;50.718;-2.460;2023-07-13T07:48:06;6.35;5.87;
74419;PMS5003;62855;50.718;-2.460;2023-07-13T07:51:06;7.26;6.84;
74419;PMS5003;62855;50.718;-2.460;2023-07-13T07:54:06;6.35;6.84;
74419;PMS5003;62855;50.718;-2.460;2023-07-13T07:57:06;7.26;6.84;
74419;PMS5003;62855;50.718;-2.460;2023-07-13T08:00:07;5.45;5.87;
74419;PMS5003;62855;50.718;-2.460;2023-07-13T08:03:06;7.26;6.84;
74419;PMS5003;62855;50.718;-2.460;2023-07-13T08:06:06;6.35;6.84;
74419;PMS5003;62855;50.718;-2.460;2023-07-13T08:09:06;5.45;5.87;
74419;PMS5003;62855;50.718;-2.460;2023-07-13T08:12:07;5.45;5.87;
74419;PMS5003;62855;50.718;-2.460;2023-07-13T08:15:08;5.45;5.87;
74419;PMS5003;62855;50.718;-2.460;2023-07-13T08:18:06;7.26;6.84;
74419;PMS5003;62855;50.718;-2.460;2023-07-13T08:21:07;6.35;5.87;
74419;PMS5003;62855;50.718;-2.460;2023-07-13T08:24:06;6.35;5.87;
74419;PMS5003;62855;50.718;-2.460;2023-07-13T08:27:06;6.35;5.87;
74419;PMS5003;62855;50.718;-2.460;2023-07-13T08:30:06;6.35;6.84;
74419;PMS5003;62855;50.718;-2.460;2023-07-13T08:33:06;7.26;5.87;
74419;PMS5003;62855;50.718;-2.460;2023-07-13T08:36:06;7.26;6.84;
74419;PMS5003;62855;50.718;-2.460;2023-07-13T08:39:06;8.17;6.84;
74419;PMS5003;62855;50.718;-2.460;2023-07-13T08:42:07;7.26;5.87;
74419;PMS5003;62855;50.718;-2.460;2023-07-13T08:45:07;6.35;5.87;
74419;PMS5003;62855;50.718;-2.460;2023-07-13T08:48:08;5.45;4.89;
74419;PMS5003;62855;50.718;-2.460;2023-07-13T08:51:09;6.35;5.87;
74419;PMS5003;62855;50.718;-2.460;2023-07-13T08:54:10;7.26;5.87;
74419;PMS5003;62855;50.718;-2.460;2023-07-13T08:57:10;7.26;6.84;
74419;PMS5003;62855;50.718;-2.460;2023-07-13T09:00:07;8.17;6.84;
74419;PMS5003;62855;50.718;-2.460;2023-07-13T09:03:07;7.26;6.84;
74419;PMS5003;62855;50.718;-2.460;2023-07-13T09:06:06;7.26;5.87;
74419;PMS5003;62855;50.718;-2.460;2023-07-13T09:09:07;8.17;5.87;
74419;PMS5003;62855;50.718;-2.460;2023-07-13T09:12:08;8.17;6.84;
74419;PMS5003;62855;50.718;-2.460;2023-07-13T09:15:14;8.17;6.84;
74419;PMS5003;62855;50.718;-2.460;2023-07-13T09:18:08;8.17;6.84;
74419;PMS5003;62855;50.718;-2.460;2023-07-13T09:21:07;7.26;6.84;
74419;PMS5003;62855;50.718;-2.460;2023-07-13T09:23:20;3.63;3.91;
74419;PMS5003;62855;50.718;-2.460;2023-07-13T09:26:19;4.54;4.89;
74419;PMS5003;62855;50.718;-2.460;2023-07-13T09:29:09;3.63;3.91;
74419;PMS5003;62855;50.718;-2.460;2023-07-13T09:32:06;2.72;2.93;
74419;PMS5003;62855;50.718;-2.460;2023-07-13T09:35:09;2.72;2.93;
74419;PMS5003;62855;50.718;-2.460;2023-07-13T09:38:10;3.63;3.91;
74419;PMS5003;62855;50.718;-2.460;2023-07-13T09:41:11;2.72;2.93;
74419;PMS5003;62855;50.718;-2.460;2023-07-13T09:44:07;2.72;2.93;
74419;PMS5003;62855;50.718;-2.460;2023-07-13T09:50:06;2.72;2.93;
74419;PMS5003;62855;50.718;-2.460;2023-07-13T09:53:11;3.63;2.93;
74419;PMS5003;62855;50.718;-2.460;2023-07-13T09:56:11;3.63;2.93;
74419;PMS5003;62855;50.718;-2.460;2023-07-13T10:05:07;3.63;2.93;
74419;PMS5003;62855;50.718;-2.460;2023-07-13T10:11:09;3.63;3.91;
74419;PMS5003;62855;50.718;-2.460;2023-07-13T10:14:09;4.54;3.91;
74419;PMS5003;62855;50.718;-2.460;2023-07-13T10:17:05;3.63;2.93;
74419;PMS5003;62855;50.718;-2.460;2023-07-13T10:20:06;4.54;3.91;
74419;PMS5003;62855;50.718;-2.460;2023-07-13T10:23:07;4.54;3.91;
74419;PMS5003;62855;50.718;-2.460;2023-07-13T10:26:06;4.54;3.91;
74419;PMS5003;62855;50.718;-2.460;2023-07-13T10:29:07;4.54;3.91;
74419;PMS5003;62855;50.718;-2.460;2023-07-13T10:32:07;4.54;3.91;
74419;PMS5003;62855;50.718;-2.460;2023-07-13T10:35:08;4.54;3.91;
74419;PMS5003;62855;50.718;-2.460;2023-07-13T10:38:07;4.54;3.91;
74419;PMS5003;62855;50.718;-2.460;2023-07-13T10:41:06;4.54;3.91;
74419;PMS5003;62855;50.718;-2.460;2023-07-13T10:44:06;3.63;3.91;
74419;PMS5003;62855;50.718;-2.460;2023-07-13T10:47:06;3.63;3.91;
74419;PMS5003;62855;50.718;-2.460;2023-07-13T10:50:08;3.63;3.91;
74419;PMS5003;62855;50.718;-2.460;2023-07-13T10:56:08;3.63;3.91;
74419;PMS5003;62855;50.718;-2.460;2023-07-13T10:59:10;2.72;2.93;
74419;PMS5003;62855;50.718;-2.460;2023-07-13T11:02:09;3.63;3.91;
74419;PMS5003;62855;50.718;-2.460;2023-07-13T11:22:11;9.08;1.96;
74419;PMS5003;62855;50.718;-2.460;2023-07-13T11:23:07;9.98;2.93;
74419;PMS5003;62855;50.718;-2.460;2023-07-13T11:29:07;6.35;4.89;
74419;PMS5003;62855;50.718;-2.460;2023-07-13T11:35:08;4.54;3.91;
74419;PMS5003;62855;50.718;-2.460;2023-07-13T11:38:09;4.54;3.91;
74419;PMS5003;62855;50.718;-2.460;2023-07-13T11:41:06;4.54;4.89;
74419;PMS5003;62855;50.718;-2.460;2023-07-13T11:44:07;5.45;5.87;
74419;PMS5003;62855;50.718;-2.460;2023-07-13T11:47:08;5.45;4.89;
74419;PMS5003;62855;50.718;-2.460;2023-07-13T11:53:08;5.45;4.89;
74419;PMS5003;62855;50.718;-2.460;2023-07-13T11:56:06;6.35;5.87;
74419;PMS5003;62855;50.718;-2.460;2023-07-13T11:59:07;6.35;6.84;
74419;PMS5003;62855;50.718;-2.460;2023-07-13T12:02:09;6.35;6.84;
74419;PMS5003;62855;50.718;-2.460;2023-07-13T12:05:05;8.17;6.84;
74419;PMS5003;62855;50.718;-2.460;2023-07-13T12:08:10;7.26;6.84;
74419;PMS5003;62855;50.718;-2.460;2023-07-13T12:11:09;7.26;5.87;
74419;PMS5003;62855;50.718;-2.460;2023-07-13T12:14:06;6.35;5.87;
74419;PMS5003;62855;50.718;-2.460;2023-07-13T12:17:08;7.26;5.87;
74419;PMS5003;62855;50.718;-2.460;2023-07-13T12:20:11;7.26;5.87;
74419;PMS5003;62855;50.718;-2.460;2023-07-13T12:23:10;7.26;5.87;
74419;PMS5003;62855;50.718;-2.460;2023-07-13T12:26:06;6.35;5.87;
74419;PMS5003;62855;50.718;-2.460;2023-07-13T12:29:06;6.35;4.89;
74419;PMS5003;62855;50.718;-2.460;2023-07-13T12:32:08;6.35;4.89;
74419;PMS5003;62855;50.718;-2.460;2023-07-13T12:38:07;6.35;5.87;
74419;PMS5003;62855;50.718;-2.460;2023-07-13T12:41:05;7.26;5.87;
74419;PMS5003;62855;50.718;-2.460;2023-07-13T12:44:08;8.17;6.84;
74419;PMS5003;62855;50.718;-2.460;2023-07-13T12:47:06;8.17;6.84;
74419;PMS5003;62855;50.718;-2.460;2023-07-13T12:50:12;7.26;5.87;
74419;PMS5003;62855;50.718;-2.460;2023-07-13T12:53:05;7.26;5.87;
74419;PMS5003;62855;50.718;-2.460;2023-07-13T12:56:06;7.26;5.87;
74419;PMS5003;62855;50.718;-2.460;2023-07-13T12:59:06;6.35;5.87;
74419;PMS5003;62855;50.718;-2.460;2023-07-13T13:05:05;5.45;5.87;
74419;PMS5003;62855;50.718;-2.460;2023-07-13T13:08:07;5.45;5.87;
74419;PMS5003;62855;50.718;-2.460;2023-07-13T13:11:06;4.54;4.89;
74419;PMS5003;62855;50.718;-2.460;2023-07-13T13:14:06;4.54;3.91;
74419;PMS5003;62855;50.718;-2.460;2023-07-13T13:17:11;3.63;3.91;
74419;PMS5003;62855;50.718;-2.460;2023-07-13T13:23:07;4.54;4.89;
74419;PMS5003;62855;50.718;-2.460;2023-07-13T13:26:08;4.54;4.89;
74419;PMS5003;62855;50.718;-2.460;2023-07-13T13:29:09;4.54;4.89;
74419;PMS5003;62855;50.718;-2.460;2023-07-13T13:32:09;4.54;4.89;
74419;PMS5003;62855;50.718;-2.460;2023-07-13T13:35:11;3.63;3.91;
74419;PMS5003;62855;50.718;-2.460;2023-07-13T13:38:09;3.63;3.91;
74419;PMS5003;62855;50.718;-2.460;2023-07-13T13:41:07;4.54;4.89;
74419;PMS5003;62855;50.718;-2.460;2023-07-13T13:44:08;4.54;4.89;
74419;PMS5003;62855;50.718;-2.460;2023-07-13T13:47:07;5.45;5.87;
74419;PMS5003;62855;50.718;-2.460;2023-07-13T13:50:11;5.45;5.87;
74419;PMS5003;62855;50.718;-2.460;2023-07-13T13:53:07;5.45;5.87;
74419;PMS5003;62855;50.718;-2.460;2023-07-13T13:56:05;4.54;4.89;
74419;PMS5003;62855;50.718;-2.460;2023-07-13T13:59:05;5.45;5.87;
74419;PMS5003;62855;50.718;-2.460;2023-07-13T14:02:11;5.45;5.87;
74419;PMS5003;62855;50.718;-2.460;2023-07-13T14:05:09;6.35;6.84;
74419;PMS5003;62855;50.718;-2.460;2023-07-13T14:08:08;6.35;6.84;
74419;PMS5003;62855;50.718;-2.460;2023-07-13T14:11:07;6.35;6.84;
74419;PMS5003;62855;50.718;-2.460;2023-07-13T14:14:08;6.35;6.84;
74419;PMS5003;62855;50.718;-2.460;2023-07-13T14:17:08;6.35;6.84;
74419;PMS5003;62855;50.718;-2.460;2023-07-13T14:20:09;5.45;5.87;
74419;PMS5003;62855;50.718;-2.460;2023-07-13T14:23:06;6.35;6.84;
74419;PMS5003;62855;50.718;-2.460;2023-07-13T14:26:09;7.26;7.82;
74419;PMS5003;62855;50.718;-2.460;2023-07-13T14:29:10;7.26;7.82;
74419;PMS5003;62855;50.718;-2.460;2023-07-13T14:32:07;7.26;6.84;
74419;PMS5003;62855;50.718;-2.460;2023-07-13T14:35:07;6.35;6.84;
74419;PMS5003;62855;50.718;-2.460;2023-07-13T14:38:07;6.35;6.84;
74419;PMS5003;62855;50.718;-2.460;2023-07-13T14:41:07;6.35;5.87;
74419;PMS5003;62855;50.718;-2.460;2023-07-13T14:44:09;6.35;5.87;
74419;PMS5003;62855;50.718;-2.460;2023-07-13T14:47:06;6.35;5.87;
74419;PMS5003;62855;50.718;-2.460;2023-07-13T14:50:07;6.35;5.87;
74419;PMS5003;62855;50.718;-2.460;2023-07-13T14:53:08;7.26;5.87;
74419;PMS5003;62855;50.718;-2.460;2023-07-13T14:56:08;6.35;4.89;
74419;PMS5003;62855;50.718;-2.460;2023-07-13T14:59:06;6.35;4.89;
74419;PMS5003;62855;50.718;-2.460;2023-07-13T15:05:09;6.35;5.87;
74419;PMS5003;62855;50.718;-2.460;2023-07-13T15:08:07;6.35;5.87;
74419;PMS5003;62855;50.718;-2.460;2023-07-13T15:11:06;6.35;5.87;
74419;PMS5003;62855;50.718;-2.460;2023-07-13T15:14:06;7.26;6.84;
74419;PMS5003;62855;50.718;-2.460;2023-07-13T15:17:08;8.17;5.87;
74419;PMS5003;62855;50.718;-2.460;2023-07-13T15:20:11;8.17;6.84;
74419;PMS5003;62855;50.718;-2.460;2023-07-13T15:23:08;7.26;6.84;
74419;PMS5003;62855;50.718;-2.460;2023-07-13T15:26:07;7.26;5.87;
74419;PMS5003;62855;50.718;-2.460;2023-07-13T15:29:06;7.26;5.87;
74419;PMS5003;62855;50.718;-2.460;2023-07-13T15:32:07;7.26;5.87;
74419;PMS5003;62855;50.718;-2.460;2023-07-13T15:35:09;7.26;5.87;
74419;PMS5003;62855;50.718;-2.460;2023-07-13T15:38:10;7.26;5.87;
74419;PMS5003;62855;50.718;-2.460;2023-07-13T15:41:09;7.26;4.89;
74419;PMS5003;62855;50.718;-2.460;2023-07-13T15:44:12;7.26;4.89;
74419;PMS5003;62855;50.718;-2.460;2023-07-13T15:47:08;6.35;5.87;
74419;PMS5003;62855;50.718;-2.460;2023-07-13T15:50:07;5.45;4.89;
74419;PMS5003;62855;50.718;-2.460;2023-07-13T15:53:08;5.45;4.89;
74419;PMS5003;62855;50.718;-2.460;2023-07-13T15:56:11;5.45;4.89;
74419;PMS5003;62855;50.718;-2.460;2023-07-13T15:59:05;5.45;4.89;
74419;PMS5003;62855;50.718;-2.460;2023-07-13T16:05:05;6.35;4.89;
74419;PMS5003;62855;50.718;-2.460;2023-07-13T16:08:06;7.26;5.87;
74419;PMS5003;62855;50.718;-2.460;2023-07-13T16:11:07;7.26;5.87;
74419;PMS5003;62855;50.718;-2.460;2023-07-13T16:14:06;7.26;5.87;
74419;PMS5003;62855;50.718;-2.460;2023-07-13T16:17:08;7.26;5.87;
74419;PMS5003;62855;50.718;-2.460;2023-07-13T16:20:07;7.26;5.87;
74419;PMS5003;62855;50.718;-2.460;2023-07-13T16:23:05;7.26;5.87;
74419;PMS5003;62855;50.718;-2.460;2023-07-13T16:26:21;7.26;5.87;
74419;PMS5003;62855;50.718;-2.460;2023-07-13T16:29:10;7.26;5.87;
74419;PMS5003;62855;50.718;-2.460;2023-07-13T16:32:06;5.45;3.91;
74419;PMS5003;62855;50.718;-2.460;2023-07-13T16:35:07;5.45;4.89;
74419;PMS5003;62855;50.718;-2.460;2023-07-13T16:38:09;4.54;3.91;
74419;PMS5003;62855;50.718;-2.460;2023-07-13T16:41:06;5.45;4.89;
74419;PMS5003;62855;50.718;-2.460;2023-07-13T16:44:09;6.35;5.87;
74419;PMS5003;62855;50.718;-2.460;2023-07-13T16:47:08;7.26;5.87;
74419;PMS5003;62855;50.718;-2.460;2023-07-13T16:50:09;6.35;4.89;
74419;PMS5003;62855;50.718;-2.460;2023-07-13T16:53:08;6.35;5.87;
74419;PMS5003;62855;50.718;-2.460;2023-07-13T16:56:08;7.26;5.87;
74419;PMS5003;62855;50.718;-2.460;2023-07-13T16:59:09;7.26;5.87;
74419;PMS5003;62855;50.718;-2.460;2023-07-13T17:02:13;7.26;6.84;
74419;PMS5003;62855;50.718;-2.460;2023-07-13T17:05:08;7.26;5.87;
74419;PMS5003;62855;50.718;-2.460;2023-07-13T17:08:10;7.26;5.87;
74419;PMS5003;62855;50.718;-2.460;2023-07-13T17:11:05;6.35;5.87;
74419;PMS5003;62855;50.718;-2.460;2023-07-13T17:14:10;4.54;4.89;
74419;PMS5003;62855;50.718;-2.460;2023-07-13T17:17:08;4.54;4.89;
74419;PMS5003;62855;50.718;-2.460;2023-07-13T17:20:09;5.45;5.87;
74419;PMS5003;62855;50.718;-2.460;2023-07-13T17:23:08;5.45;5.87;
74419;PMS5003;62855;50.718;-2.460;2023-07-13T17:26:06;5.45;5.87;
74419;PMS5003;62855;50.718;-2.460;2023-07-13T17:29:05;5.45;5.87;
74419;PMS5003;62855;50.718;-2.460;2023-07-13T17:32:06;4.54;4.89;
74419;PMS5003;62855;50.718;-2.460;2023-07-13T17:38:06;7.26;7.82;
74419;PMS5003;62855;50.718;-2.460;2023-07-13T17:41:05;9.08;6.84;
74419;PMS5003;62855;50.718;-2.460;2023-07-13T17:44:06;10.89;6.84;
74419;PMS5003;62855;50.718;-2.460;2023-07-13T17:47:08;12.71;5.87;
74419;PMS5003;62855;50.718;-2.460;2023-07-13T17:50:09;11.80;5.87;
74419;PMS5003;62855;50.718;-2.460;2023-07-13T17:53:08;11.80;6.84;
74419;PMS5003;62855;50.718;-2.460;2023-07-13T17:56:06;10.89;6.84;
74419;PMS5003;62855;50.718;-2.460;2023-07-13T17:59:06;10.89;6.84;
74419;PMS5003;62855;50.718;-2.460;2023-07-13T18:02:09;10.89;7.82;
74419;PMS5003;62855;50.718;-2.460;2023-07-13T18:05:08;9.98;6.84;
74419;PMS5003;62855;50.718;-2.460;2023-07-13T18:08:08;9.08;5.87;
74419;PMS5003;62855;50.718;-2.460;2023-07-13T18:11:08;8.17;5.87;
74419;PMS5003;62855;50.718;-2.460;2023-07-13T18:14:06;7.26;6.84;
74419;PMS5003;62855;50.718;-2.460;2023-07-13T18:17:07;6.35;5.87;
74419;PMS5003;62855;50.718;-2.460;2023-07-13T18:20:06;5.45;4.89;
74419;PMS5003;62855;50.718;-2.460;2023-07-13T18:23:08;6.35;5.87;
74419;PMS5003;62855;50.718;-2.460;2023-07-13T18:26:08;5.45;5.87;
74419;PMS5003;62855;50.718;-2.460;2023-07-13T18:29:05;5.45;4.89;
74419;PMS5003;62855;50.718;-2.460;2023-07-13T18:32:06;5.45;5.87;
74419;PMS5003;62855;50.718;-2.460;2023-07-13T18:35:10;7.26;5.87;
74419;PMS5003;62855;50.718;-2.460;2023-07-13T18:38:07;7.26;6.84;
74419;PMS5003;62855;50.718;-2.460;2023-07-13T18:41:07;7.26;6.84;
74419;PMS5003;62855;50.718;-2.460;2023-07-13T18:44:06;9.98;7.82;
74419;PMS5003;62855;50.718;-2.460;2023-07-13T18:47:07;11.80;8.80;
74419;PMS5003;62855;50.718;-2.460;2023-07-13T18:53:07;11.80;7.82;
74419;PMS5003;62855;50.718;-2.460;2023-07-13T18:56:06;9.98;5.87;
74419;PMS5003;62855;50.718;-2.460;2023-07-13T18:59:06;9.08;6.84;
74419;PMS5003;62855;50.718;-2.460;2023-07-13T19:02:09;9.08;5.87;
74419;PMS5003;62855;50.718;-2.460;2023-07-13T19:08:08;8.17;6.84;
74419;PMS5003;62855;50.718;-2.460;2023-07-13T19:11:08;7.26;5.87;
74419;PMS5003;62855;50.718;-2.460;2023-07-13T19:14:08;7.26;5.87;
74419;PMS5003;62855;50.718;-2.460;2023-07-13T19:17:07;5.45;5.87;
74419;PMS5003;62855;50.718;-2.460;2023-07-13T19:20:08;4.54;4.89;
74419;PMS5003;62855;50.718;-2.460;2023-07-13T19:23:08;4.54;4.89;
74419;PMS5003;62855;50.718;-2.460;2023-07-13T19:26:08;6.35;5.87;
74419;PMS5003;62855;50.718;-2.460;2023-07-13T19:29:07;6.35;5.87;
74419;PMS5003;62855;50.718;-2.460;2023-07-13T19:32:06;6.35;5.87;